Flight Track Log - Related Links

Times and Time Zones

All times are in EDT time to prevent confusion due to time zone crossing. See the EJA122 flight status page for this flight to view local times or setup timezone preferences in your user account.

Time Position Orientation Groundspeed Altitude Reporting Facility
EDT Latitude Longitude Course Direction KTS MPH feet Rate Location/Type
Thu 12:35:40 PM 33.6000 -111.9333 303° West 182 209 2,600  Level Phoenix TRACON
Thu 12:36:55 PM 33.6392 -112.0050 303° West 231 266 6,300 2,891 Climbing Albuquerque Center
Thu 12:37:57 PM 33.7014 -112.0578 325° Northwest 272 313 9,200 2,710 Climbing Albuquerque Center
Thu 12:38:59 PM 33.7717 -112.1164 325° Northwest 303 349 11,900 2,208 Climbing Albuquerque Center
Thu 12:40:02 PM 33.8489 -112.1808 325° Northwest 333 383 13,800 2,352 Climbing Albuquerque Center
Thu 12:41:04 PM 33.9353 -112.2542 325° Northwest 373 429 16,800 2,806 Climbing Albuquerque Center
Thu 12:42:06 PM 34.0206 -112.3253 325° Northwest 371 427 19,600 1,597 Climbing Albuquerque Center
Thu 12:43:08 PM 34.1128 -112.3864 331° Northwest 377 434 20,100 677 Climbing Albuquerque Center
Thu 12:44:10 PM 34.2344 -112.4622 333° Northwest 402 463 21,000 871 Climbing Albuquerque Center
Thu 12:45:12 PM 34.3367 -112.5247 333° Northwest 409 471 21,900 484 Climbing Albuquerque Center
Thu 12:46:14 PM 34.4383 -112.5897 332° Northwest 411 473 22,000 48 Climbing Albuquerque Center
Thu 12:47:16 PM 34.5483 -112.6575 333° Northwest 425 489 22,000  Level Albuquerque Center
Thu 12:48:18 PM 34.6567 -112.7272 332° Northwest 436 502 22,000  Level Albuquerque Center
Thu 12:49:20 PM 34.7431 -112.8286 316° Northwest 434 499 22,000  Level Albuquerque Center
Thu 12:50:22 PM 34.8167 -112.9794 301° West 431 496 22,000  Level Albuquerque Center
Thu 12:51:24 PM 34.8758 -113.1058 300° West 431 496 22,000  Level Albuquerque Center
Thu 12:52:27 PM 34.9356 -113.2322 300° West 430 495 22,000  Level Albuquerque Center
Thu 12:53:28 PM 34.9939 -113.3572 300° West 428 493 22,000  Level Albuquerque Center
Thu 12:53:43 PM 35.0050 -113.3803 300° West 422 486 22,000  Level Los Angeles Center
Thu 12:54:45 PM 35.0594 -113.4972 300° West 402 463 22,000  Level Los Angeles Center
Thu 12:55:47 PM 35.1233 -113.6325 300° West 389 448 22,000  Level Los Angeles Center
Thu 12:56:49 PM 35.1747 -113.7456 299° West 385 443 22,000  Level Los Angeles Center
Thu 12:57:51 PM 35.2247 -113.8564 299° West 379 436 22,000  Level Los Angeles Center
Thu 12:58:53 PM 35.2892 -113.9575 308° West 379 436 22,000 -576 Level Los Angeles Center
Thu 12:59:56 PM 35.3778 -114.0419 322° Northwest 402 463 20,800 -1,632 Descending Los Angeles Center
Thu 01:00:58 PM 35.4658 -114.1247 323° Northwest 402 463 18,600 -2,226 Descending Los Angeles Center
Thu 01:02:00 PM 35.5650 -114.2178 323° Northwest 382 440 16,200 -2,217 Descending Los Angeles Center
Thu 01:02:30 PM 35.6086 -114.2597 322° Northwest 375 432 15,200 -1,839 Descending Los Angeles Center
Thu 01:03:02 PM 35.6447 -114.2911 325° Northwest 363 418 14,300 -1,791 Descending Los Angeles Center
Thu 01:03:37 PM 35.6931 -114.3369 322° Northwest 358 412 13,200 -1,742 Descending Los Angeles Center
Thu 01:04:04 PM 35.7225 -114.3636 324° Northwest 354 407 12,500 -1,500 Descending Los Angeles Center
Thu 01:04:37 PM 35.7764 -114.3992 332° Northwest 323 372 11,700 -871 Descending Los Angeles Center
Thu 01:05:06 PM 35.8008 -114.4106 339° North 320 368 11,600 -484 Descending Los Angeles Center
Thu 01:05:39 PM 35.8542 -114.4367 338° Northwest 297 342 11,200 -581 Descending Los Angeles Center
Thu 01:06:08 PM 35.8769 -114.4456 342° North 296 341 11,000 -1,111 Descending Los Angeles Center
Thu 01:06:33 PM 35.9239 -114.4689 338° Northwest 296 341 10,200 -1,548 Descending Los Angeles Center
Thu 01:07:10 PM 35.9686 -114.4889 340° North 295 339 9,400 -1,377 Descending Los Angeles Center
Thu 01:07:34 PM 35.9992 -114.5044 338° Northwest 290 334 8,800 -1,355 Descending Los Angeles Center
Thu 01:08:12 PM 36.0364 -114.5308 330° Northwest 284 327 8,000 -787 Descending Los Angeles Center
Thu 01:08:35 PM 36.0569 -114.5597 311° West 270 311 8,000 -387 Level Los Angeles Center
Thu 01:09:14 PM 36.0886 -114.5983 315° West 272 313 7,600 -885 Descending Los Angeles Center
Thu 01:09:36 PM 36.1042 -114.6264 304° West 257 296 7,100 -571 Descending Los Angeles Center
Thu 01:10:17 PM 36.1333 -114.6594 318° Northwest 257 296 7,000 -98 Descending Los Angeles Center
Thu 01:10:37 PM 36.1392 -114.6972 281° West 238 274 7,000  Level Los Angeles Center
Thu 01:11:19 PM 36.1397 -114.7361 271° West 242 278 7,000  Level Los Angeles Center
Thu 01:11:38 PM 36.1375 -114.7775 266° West 238 274 7,000  Level Los Angeles Center
Thu 01:12:21 PM 36.1353 -114.8186 266° West 240 276 7,000  Level Los Angeles Center
Thu 01:12:39 PM 36.1358 -114.8581 271° West 236 272 7,000 -194 Level Los Angeles Center
Thu 01:13:23 PM 36.1339 -114.9100 267° West 226 260 6,800 -492 Descending Los Angeles Center
Thu 01:13:40 PM 36.1333 -114.9256 267° West 188 216 6,500 -1,065 Descending Los Angeles Center
Thu 01:14:25 PM 36.1325 -114.9719 269° West 192 221 5,700 -1,082 Descending Los Angeles Center
Thu 01:14:41 PM 36.1342 -114.9892 277° West 187 215 5,400 -1,342 Descending Los Angeles Center
Thu 01:15:41 PM 36.1375 -115.0628 273° West 193 222 4,000 -1,111 Descending Los Angeles Center
Thu 01:16:29 PM 36.1394 -115.0992 274° West 186 214 3,400 -709 Descending Los Angeles Center
Thu 01:17:31 PM 36.1211 -115.1386 240° Southwest 152 175 2,700 -677 Descending Los Angeles Center
Thu 01:18:33 PM 36.0883 -115.1597 207° Southwest 138 159 2,000 -677 Descending Los Angeles Center
Thu 01:20:00 PM 36.0801 -115.1523 180° South  Level Estimated

Login

Don't have an account? Register now (free) for customized features, flight alerts, and more!